createdAt,value
2017-12-02T00:02:16.644Z,64.20
2017-12-02T00:04:44.261Z,66.10
2017-12-02T00:07:11.897Z,65.40
2017-12-02T00:09:39.742Z,66.60
2017-12-02T00:12:07.380Z,65.40
2017-12-02T00:14:35.055Z,64.60
2017-12-02T00:17:02.682Z,66.20
2017-12-02T00:19:30.312Z,65.20
2017-12-02T00:21:57.956Z,65.10
2017-12-02T00:24:25.576Z,67.70
2017-12-02T00:26:54.011Z,69.30
2017-12-02T00:29:21.659Z,69.30
2017-12-02T00:31:49.404Z,68.90
2017-12-02T00:34:17.067Z,69.10
2017-12-02T00:36:44.690Z,67.70
2017-12-02T00:39:12.446Z,69.30
2017-12-02T00:41:40.069Z,70.00
2017-12-02T00:44:07.693Z,70.20
2017-12-02T00:46:35.514Z,70.50
2017-12-02T00:49:03.143Z,70.90
2017-12-02T00:51:30.799Z,69.60
2017-12-02T00:53:58.536Z,68.70
2017-12-02T00:56:26.160Z,68.50
2017-12-02T00:58:53.822Z,69.00
2017-12-02T01:01:21.457Z,68.00
2017-12-02T01:03:49.135Z,67.40
2017-12-02T01:06:16.761Z,66.50
2017-12-02T01:08:44.377Z,68.20
2017-12-02T01:11:12.028Z,69.40
2017-12-02T01:13:39.718Z,70.80
2017-12-02T01:16:07.361Z,70.30
2017-12-02T01:18:34.973Z,70.00
2017-12-02T01:21:02.600Z,70.30
2017-12-02T01:23:30.264Z,71.80
2017-12-02T01:25:57.898Z,72.70
2017-12-02T01:28:25.541Z,73.40
2017-12-02T01:30:53.160Z,73.20
2017-12-02T01:33:21.576Z,74.20
2017-12-02T01:35:49.413Z,74.20
2017-12-02T01:38:17.050Z,74.70
2017-12-02T01:40:44.702Z,74.80
2017-12-02T01:43:12.326Z,75.40
2017-12-02T01:45:39.954Z,75.30
2017-12-02T01:48:07.814Z,74.30
2017-12-02T01:50:36.206Z,74.60
2017-12-02T01:53:03.859Z,74.50
2017-12-02T01:55:31.487Z,71.30
2017-12-02T01:57:59.900Z,64.20
2017-12-02T02:00:27.550Z,64.20
2017-12-02T02:02:55.325Z,64.70
2017-12-02T02:05:22.966Z,66.00
2017-12-02T02:07:50.587Z,68.40
2017-12-02T02:10:18.290Z,69.30
2017-12-02T02:12:45.944Z,69.10
2017-12-02T02:15:13.564Z,68.90
2017-12-02T02:17:41.215Z,66.40
2017-12-02T02:20:09.719Z,65.60
2017-12-02T02:22:37.419Z,65.50
2017-12-02T02:25:05.111Z,67.30
2017-12-02T02:27:32.733Z,69.20
2017-12-02T02:30:01.149Z,65.50
2017-12-02T02:32:28.819Z,65.40
2017-12-02T02:34:56.478Z,63.70
2017-12-02T02:37:24.093Z,62.80
2017-12-02T02:39:51.773Z,62.80
2017-12-02T02:42:20.197Z,62.20
2017-12-02T02:44:47.876Z,62.30
2017-12-02T02:47:15.530Z,61.90
2017-12-02T02:49:43.179Z,61.20
2017-12-02T02:52:11.571Z,61.10
2017-12-02T02:54:39.356Z,61.10
2017-12-02T02:57:06.992Z,61.20
2017-12-02T02:59:34.651Z,62.00
2017-12-02T03:02:02.297Z,65.60
2017-12-02T03:04:29.909Z,67.80
2017-12-02T03:06:57.569Z,68.80
2017-12-02T03:09:25.322Z,67.00
2017-12-02T03:11:52.983Z,66.60
2017-12-02T03:14:20.602Z,69.00
2017-12-02T03:16:48.337Z,68.30
2017-12-02T03:19:15.985Z,68.30
2017-12-02T03:21:43.613Z,69.00
2017-12-02T03:24:12.026Z,69.20
2017-12-02T03:26:39.725Z,69.20
2017-12-02T03:29:08.166Z,69.80
2017-12-02T03:31:35.809Z,69.80
2017-12-02T03:34:03.432Z,70.20
2017-12-02T03:36:31.087Z,70.20
2017-12-02T03:38:58.793Z,69.00
2017-12-02T03:41:26.415Z,69.80
2017-12-02T03:43:54.094Z,69.10
2017-12-02T03:46:21.714Z,68.00
2017-12-02T03:48:50.126Z,71.90
2017-12-02T03:51:17.748Z,71.50
2017-12-02T03:53:45.547Z,71.70
2017-12-02T03:56:13.237Z,73.00
2017-12-02T03:58:41.621Z,73.80
2017-12-02T04:01:09.457Z,73.90
2017-12-02T04:03:37.086Z,73.30
2017-12-02T04:06:05.474Z,77.10
2017-12-02T04:08:33.137Z,77.00
2017-12-02T04:11:00.771Z,77.50
2017-12-02T04:13:28.517Z,78.00
2017-12-02T04:15:56.166Z,77.90
2017-12-02T04:18:23.807Z,75.60
2017-12-02T04:20:51.469Z,75.00
2017-12-02T04:23:19.103Z,76.80
2017-12-02T04:25:46.755Z,78.10
2017-12-02T04:28:14.401Z,79.10
2017-12-02T04:30:42.018Z,78.80
2017-12-02T04:33:10.449Z,78.40
2017-12-02T04:35:38.328Z,79.00
2017-12-02T04:38:06.073Z,79.70
2017-12-02T04:40:33.694Z,79.80
2017-12-02T04:43:01.314Z,79.70
2017-12-02T04:45:28.966Z,79.60
2017-12-02T04:47:56.621Z,80.80
2017-12-02T04:50:24.277Z,82.10
2017-12-02T04:52:51.974Z,82.60
2017-12-02T04:55:20.362Z,83.80
2017-12-02T04:57:48.034Z,83.70
2017-12-02T05:00:15.750Z,84.00
2017-12-02T05:02:43.413Z,84.00
2017-12-02T05:05:11.040Z,84.00
2017-12-02T05:07:38.730Z,84.70
2017-12-02T05:10:06.379Z,84.80
2017-12-02T05:12:34.005Z,84.90
2017-12-02T05:15:01.663Z,84.80
2017-12-02T05:17:29.370Z,84.30
2017-12-02T05:19:57.030Z,84.20
2017-12-02T05:22:24.677Z,83.80
2017-12-02T05:24:52.300Z,83.70
2017-12-02T05:27:19.949Z,83.40
2017-12-02T05:29:47.625Z,83.30
2017-12-02T05:32:15.355Z,82.90
2017-12-02T05:34:43.004Z,82.90
2017-12-02T05:37:10.635Z,83.90
2017-12-02T05:39:39.058Z,81.30
2017-12-02T05:42:06.676Z,81.30
2017-12-02T05:44:34.309Z,82.40
2017-12-02T05:47:01.970Z,82.30
2017-12-02T05:49:29.751Z,81.60
2017-12-02T05:51:57.398Z,82.00
2017-12-02T05:54:25.060Z,82.60
2017-12-02T05:56:52.681Z,84.00
2017-12-02T05:59:20.331Z,84.60
2017-12-02T06:01:47.960Z,85.40
2017-12-02T06:04:15.640Z,85.40
2017-12-02T06:06:43.262Z,85.20
2017-12-02T06:09:10.885Z,85.40
2017-12-02T06:11:38.691Z,85.70
2017-12-02T06:14:06.308Z,85.80
2017-12-02T06:16:33.990Z,86.30
2017-12-02T06:19:02.373Z,87.40
2017-12-02T06:21:30.017Z,87.50
2017-12-02T06:23:57.689Z,87.60
2017-12-02T06:26:25.329Z,86.70
2017-12-02T06:28:52.971Z,86.10
2017-12-02T06:31:20.595Z,85.80
2017-12-02T06:33:48.982Z,87.20
2017-12-02T06:36:16.670Z,87.20
2017-12-02T06:38:44.306Z,87.30
2017-12-02T06:41:11.988Z,87.80
2017-12-02T06:43:39.691Z,87.50
2017-12-02T06:46:07.297Z,87.30
2017-12-02T06:48:34.954Z,86.70
2017-12-02T06:51:02.681Z,86.50
2017-12-02T06:53:31.103Z,86.70
2017-12-02T06:55:58.787Z,86.40
2017-12-02T06:58:26.420Z,87.10
2017-12-02T07:00:54.078Z,87.80
2017-12-02T07:03:21.717Z,87.20
2017-12-02T07:05:49.380Z,86.30
2017-12-02T07:08:17.778Z,87.60
2017-12-02T07:10:45.393Z,87.60
2017-12-02T07:13:13.849Z,88.80
2017-12-02T07:15:41.494Z,88.80
2017-12-02T07:18:09.278Z,88.80
2017-12-02T07:20:36.928Z,88.60
2017-12-02T07:23:04.561Z,88.50
2017-12-02T07:25:33.300Z,88.40
2017-12-02T07:28:01.105Z,88.30
2017-12-02T07:30:29.363Z,87.40
2017-12-02T07:32:57.006Z,87.60
2017-12-02T07:35:24.660Z,87.70
2017-12-02T07:37:53.828Z,87.90
2017-12-02T07:40:21.647Z,87.80
2017-12-02T07:42:51.008Z,87.80
2017-12-02T07:45:18.922Z,87.90
2017-12-02T07:47:46.666Z,88.10
2017-12-02T07:50:14.314Z,87.90
2017-12-02T07:52:41.937Z,86.90
2017-12-02T07:55:09.684Z,85.40
2017-12-02T07:57:37.684Z,83.50
2017-12-02T08:00:06.161Z,83.10
2017-12-02T08:02:33.824Z,83.20
2017-12-02T08:05:01.448Z,82.60
2017-12-02T08:07:29.302Z,83.20
2017-12-02T08:09:56.948Z,82.40
2017-12-02T08:12:24.606Z,81.90
2017-12-02T08:14:53.895Z,79.40
2017-12-02T08:17:21.538Z,80.70
2017-12-02T08:19:49.428Z,78.10
2017-12-02T08:22:17.170Z,76.30
2017-12-02T08:24:45.576Z,73.70
2017-12-02T08:27:13.242Z,73.60
2017-12-02T08:29:41.176Z,74.80
2017-12-02T08:32:08.853Z,73.50
2017-12-02T08:34:36.534Z,72.20
2017-12-02T08:37:04.174Z,71.60
2017-12-02T08:39:31.853Z,71.00
2017-12-02T08:41:59.734Z,71.90
2017-12-02T08:44:27.391Z,70.60
2017-12-02T08:46:55.027Z,70.90
2017-12-02T08:49:22.646Z,70.40
2017-12-02T08:51:50.742Z,70.10
2017-12-02T08:54:18.847Z,70.00
2017-12-02T08:56:46.509Z,71.30
2017-12-02T08:59:14.176Z,68.90
2017-12-02T09:01:41.887Z,68.70
2017-12-02T09:04:10.331Z,67.30
2017-12-02T09:06:37.950Z,66.80
2017-12-02T09:09:05.598Z,65.90
2017-12-02T09:11:33.218Z,67.20
2017-12-02T09:14:01.012Z,68.50
2017-12-02T09:16:28.671Z,70.20
2017-12-02T09:18:56.306Z,70.20
2017-12-02T09:21:24.752Z,69.50
2017-12-02T09:23:52.622Z,69.20
2017-12-02T09:26:20.263Z,69.60
2017-12-02T09:28:47.994Z,69.70
2017-12-02T09:31:15.674Z,67.30
2017-12-02T09:33:43.340Z,68.50
2017-12-02T09:36:11.738Z,68.30
2017-12-02T09:38:39.430Z,68.40
2017-12-02T09:41:07.082Z,68.10
2017-12-02T09:43:34.709Z,68.00
2017-12-02T09:46:02.374Z,66.40
2017-12-02T09:48:30.015Z,65.40
2017-12-02T09:50:57.872Z,64.10
2017-12-02T09:53:26.131Z,63.10
2017-12-02T09:55:54.143Z,62.50
2017-12-02T09:58:22.601Z,61.10
2017-12-02T10:00:50.292Z,56.50
2017-12-02T10:03:17.918Z,54.90
2017-12-02T10:05:45.566Z,57.30
2017-12-02T10:08:13.241Z,58.20
2017-12-02T10:10:41.081Z,59.00
2017-12-02T10:13:08.731Z,53.90
2017-12-02T10:15:36.350Z,55.20
2017-12-02T10:18:04.539Z,59.00
2017-12-02T10:20:32.154Z,55.20
2017-12-02T10:23:00.347Z,54.70
2017-12-02T10:25:28.006Z,54.30
2017-12-02T10:27:56.767Z,53.50
2017-12-02T10:30:24.457Z,53.50
2017-12-02T10:32:52.118Z,51.00
2017-12-02T10:35:19.782Z,53.50
2017-12-02T10:37:47.401Z,55.00
2017-12-02T10:40:15.101Z,53.00
2017-12-02T10:42:42.905Z,56.70
2017-12-02T10:45:11.511Z,58.70
2017-12-02T10:47:40.174Z,57.60
2017-12-02T10:50:07.821Z,57.60
2017-12-02T10:52:36.731Z,55.40
2017-12-02T10:55:05.136Z,58.00
2017-12-02T10:57:32.749Z,58.00
2017-12-02T11:00:01.335Z,58.30
2017-12-02T11:02:28.953Z,58.30
2017-12-02T11:04:57.111Z,59.90
2017-12-02T11:07:25.530Z,60.60
2017-12-02T11:09:53.185Z,60.60
2017-12-02T11:12:20.870Z,59.00
2017-12-02T11:14:49.556Z,61.00
2017-12-02T11:17:18.350Z,61.60
2017-12-02T11:22:20.884Z,61.90
2017-12-02T11:24:48.682Z,61.90
2017-12-02T11:27:16.310Z,62.20
2017-12-02T11:29:46.170Z,61.00
2017-12-02T11:32:14.799Z,60.40
2017-12-02T11:34:42.424Z,60.30
2017-12-02T11:37:13.096Z,61.70
2017-12-02T11:39:40.885Z,62.50
2017-12-02T11:42:08.692Z,62.50
2017-12-02T11:44:38.610Z,63.70
2017-12-02T11:47:07.011Z,62.20
2017-12-02T11:49:34.709Z,62.20
2017-12-02T11:52:02.331Z,63.40
2017-12-02T11:54:29.954Z,63.80
2017-12-02T11:56:57.645Z,64.00
2017-12-02T11:59:25.424Z,63.00
2017-12-02T12:01:53.081Z,60.50
2017-12-02T12:04:20.694Z,59.30
2017-12-02T12:06:49.074Z,63.70
2017-12-02T12:09:17.486Z,60.20
2017-12-02T12:11:45.777Z,60.20
2017-12-02T12:14:13.419Z,59.40
2017-12-02T12:16:41.626Z,59.00
2017-12-02T12:19:09.325Z,59.00
2017-12-02T12:21:36.971Z,60.90
2017-12-02T12:24:04.626Z,60.30
2017-12-02T12:26:32.312Z,59.40
2017-12-02T12:28:59.950Z,60.40
2017-12-02T12:31:27.586Z,60.10
2017-12-02T12:33:56.106Z,56.60
2017-12-02T12:36:28.407Z,56.50
2017-12-02T12:38:56.855Z,56.40
2017-12-02T12:41:24.470Z,56.40
2017-12-02T12:43:52.097Z,58.70
2017-12-02T12:46:19.763Z,59.10
2017-12-02T12:48:47.384Z,58.20
2017-12-02T12:51:15.049Z,60.30
2017-12-02T12:53:42.669Z,58.10
2017-12-02T12:56:10.288Z,57.10
2017-12-02T12:58:38.768Z,58.90
2017-12-02T13:01:06.387Z,58.90
2017-12-02T13:03:34.045Z,60.60
2017-12-02T13:06:02.452Z,58.80
2017-12-02T13:08:30.075Z,58.70
2017-12-02T13:10:57.745Z,56.60
2017-12-02T13:13:26.197Z,58.80
2017-12-02T13:15:53.856Z,58.70
2017-12-02T13:18:21.503Z,55.60
2017-12-02T13:20:49.146Z,57.40
2017-12-02T13:23:16.802Z,56.70
2017-12-02T13:25:44.424Z,53.90
2017-12-02T13:28:12.075Z,54.90
2017-12-02T13:30:39.794Z,54.70
2017-12-02T13:33:08.261Z,54.50
2017-12-02T13:35:36.683Z,54.70
2017-12-02T13:38:04.312Z,54.70
2017-12-02T13:40:31.970Z,56.40
2017-12-02T13:42:59.718Z,56.20
2017-12-02T13:45:27.365Z,56.40
2017-12-02T13:47:55.011Z,53.90
2017-12-02T13:50:22.668Z,54.90
2017-12-02T13:52:50.289Z,54.50
2017-12-02T13:55:17.921Z,56.30
2017-12-02T13:57:46.330Z,54.00
2017-12-02T14:00:13.945Z,54.10
2017-12-02T14:02:41.620Z,55.80
2017-12-02T14:05:09.379Z,54.70
2017-12-02T14:07:37.006Z,53.70
2017-12-02T14:10:04.662Z,55.40
2017-12-02T14:12:32.287Z,56.70
2017-12-02T14:14:59.971Z,57.20
2017-12-02T14:17:27.610Z,56.40
2017-12-02T14:19:55.338Z,57.40
2017-12-02T14:22:22.996Z,57.30
2017-12-02T14:24:50.629Z,58.20
2017-12-02T14:27:18.422Z,57.60
2017-12-02T14:29:46.050Z,57.70
2017-12-02T14:32:13.676Z,56.40
2017-12-02T14:34:41.329Z,55.00
2017-12-02T14:37:08.955Z,54.20
2017-12-02T14:39:36.621Z,57.60
2017-12-02T14:42:04.242Z,59.20
2017-12-02T14:44:31.871Z,60.10
2017-12-02T14:46:59.576Z,58.80
2017-12-02T14:49:27.213Z,57.60
2017-12-02T14:51:54.864Z,58.20
2017-12-02T14:54:22.509Z,59.30
2017-12-02T14:56:50.128Z,61.00
2017-12-02T14:59:17.823Z,58.90
2017-12-02T15:01:46.257Z,58.90
2017-12-02T15:04:13.913Z,58.90
2017-12-02T15:06:41.533Z,58.80
2017-12-02T15:09:09.309Z,61.40
2017-12-02T15:11:36.964Z,61.00
2017-12-02T15:14:04.608Z,60.00
2017-12-02T15:16:32.277Z,58.00
2017-12-02T15:18:59.898Z,60.40
2017-12-02T15:21:27.523Z,62.80
2017-12-02T15:23:55.182Z,63.80
2017-12-02T15:26:24.334Z,62.70
2017-12-02T15:28:52.007Z,62.90
2017-12-02T15:31:19.728Z,61.20
2017-12-02T15:33:47.358Z,61.20
2017-12-02T15:36:15.773Z,64.60
2017-12-02T15:38:43.393Z,64.60
2017-12-02T15:41:11.100Z,64.60
2017-12-02T15:43:39.516Z,65.20
2017-12-02T15:46:07.145Z,65.20
2017-12-02T15:48:34.789Z,66.30
2017-12-02T15:51:02.417Z,67.80
2017-12-02T15:53:30.895Z,70.00
2017-12-02T15:55:58.752Z,70.00
2017-12-02T15:58:26.371Z,70.30
2017-12-02T16:00:54.054Z,70.40
2017-12-02T16:03:21.688Z,73.60
2017-12-02T16:05:49.447Z,72.20
2017-12-02T16:08:17.069Z,71.30
2017-12-02T16:10:45.463Z,70.90
2017-12-02T16:13:13.117Z,70.90
2017-12-02T16:15:40.735Z,70.50
2017-12-02T16:18:09.187Z,71.50
2017-12-02T16:20:37.574Z,71.80
2017-12-02T16:23:05.310Z,71.80
2017-12-02T16:25:33.013Z,74.50
2017-12-02T16:28:00.635Z,75.00
2017-12-02T16:30:28.382Z,75.30
2017-12-02T16:32:56.038Z,74.00
2017-12-02T16:35:23.826Z,75.70
2017-12-02T16:37:52.421Z,75.10
2017-12-02T16:40:20.846Z,74.10
2017-12-02T16:42:48.572Z,73.70
2017-12-02T16:45:16.203Z,73.50
2017-12-02T16:47:43.834Z,74.70
2017-12-02T16:50:11.494Z,74.80
2017-12-02T16:52:39.138Z,75.00
2017-12-02T16:55:06.802Z,75.40
2017-12-02T16:57:34.439Z,74.70
2017-12-02T17:00:02.056Z,73.70
2017-12-02T17:02:30.500Z,75.10
2017-12-02T17:04:58.199Z,75.00
2017-12-02T17:07:25.863Z,74.80
2017-12-02T17:09:53.498Z,75.10
2017-12-02T17:12:21.161Z,76.00
2017-12-02T17:14:48.821Z,76.10
2017-12-02T17:17:16.449Z,75.70
2017-12-02T17:19:44.110Z,76.50
2017-12-02T17:22:11.778Z,78.00
2017-12-02T17:24:39.415Z,78.30
2017-12-02T17:27:07.103Z,78.90
2017-12-02T17:29:34.731Z,78.70
2017-12-02T17:32:03.169Z,79.00
2017-12-02T17:34:30.830Z,79.00
2017-12-02T17:36:58.672Z,78.90
2017-12-02T17:39:26.337Z,78.00
2017-12-02T17:41:53.969Z,77.30
2017-12-02T17:44:21.662Z,78.30
2017-12-02T17:46:49.369Z,78.30
2017-12-02T17:49:17.026Z,78.70
2017-12-02T17:51:45.495Z,78.60
2017-12-02T17:54:13.878Z,78.00
2017-12-02T17:56:41.513Z,77.90
2017-12-02T17:59:09.925Z,78.40
2017-12-02T18:01:37.594Z,78.50
2017-12-02T18:04:05.238Z,79.20
2017-12-02T18:06:32.935Z,79.00
2017-12-02T18:09:00.651Z,79.00
2017-12-02T18:11:29.041Z,78.50
2017-12-02T18:13:56.709Z,78.50
2017-12-02T18:16:24.340Z,78.20
2017-12-02T18:18:52.005Z,78.70
2017-12-02T18:21:19.662Z,78.70
2017-12-02T18:23:47.395Z,78.60
2017-12-02T18:26:15.066Z,80.30
2017-12-02T18:28:42.743Z,81.30
2017-12-02T18:31:10.403Z,81.80
2017-12-02T18:33:38.043Z,82.20
2017-12-02T18:36:06.441Z,82.00
2017-12-02T18:38:34.117Z,81.90
2017-12-02T18:41:01.747Z,82.70
2017-12-02T18:43:29.449Z,83.30
2017-12-02T18:45:57.921Z,83.30
2017-12-02T18:48:25.574Z,83.30
2017-12-02T18:50:53.258Z,83.40
2017-12-02T18:53:20.899Z,82.50
2017-12-02T18:55:48.766Z,82.90
2017-12-02T18:58:16.398Z,82.90
2017-12-02T19:00:44.076Z,83.70
2017-12-02T19:03:11.783Z,84.30
2017-12-02T19:05:39.409Z,84.70
2017-12-02T19:08:07.189Z,84.20
2017-12-02T19:10:35.304Z,84.10
2017-12-02T19:13:02.930Z,84.30
2017-12-02T19:15:30.627Z,84.70
2017-12-02T19:17:58.297Z,85.10
2017-12-02T19:20:25.997Z,85.10
2017-12-02T19:22:54.389Z,85.90
2017-12-02T19:25:22.018Z,85.90
2017-12-02T19:27:49.808Z,85.40
2017-12-02T19:30:17.429Z,85.40
2017-12-02T19:32:45.093Z,85.80
2017-12-02T19:35:12.715Z,85.00
2017-12-02T19:37:40.350Z,84.60
2017-12-02T19:40:08.704Z,84.80
2017-12-02T19:42:36.369Z,84.60
2017-12-02T19:45:04.087Z,84.70
2017-12-02T19:47:32.489Z,84.40
2017-12-02T19:50:00.142Z,84.40
2017-12-02T19:52:28.893Z,85.30
2017-12-02T19:54:56.524Z,85.20
2017-12-02T19:57:24.244Z,85.40
2017-12-02T19:59:51.957Z,85.10
2017-12-02T20:02:19.614Z,84.80
2017-12-02T20:04:47.273Z,84.40
2017-12-02T20:07:14.906Z,84.40
2017-12-02T20:09:42.563Z,84.80
2017-12-02T20:12:10.196Z,85.20
2017-12-02T20:14:37.880Z,85.60
2017-12-02T20:17:05.534Z,85.20
2017-12-02T20:19:33.160Z,84.70
2017-12-02T20:22:00.826Z,83.80
2017-12-02T20:24:28.473Z,83.70
2017-12-02T20:26:56.118Z,83.20
2017-12-02T20:29:23.777Z,83.30
2017-12-02T20:31:52.170Z,84.50
2017-12-02T20:34:19.818Z,84.50
2017-12-02T20:36:47.470Z,84.70
2017-12-02T20:39:15.094Z,84.60
2017-12-02T20:41:42.762Z,84.80
2017-12-02T20:44:10.391Z,85.20
2017-12-02T20:46:38.858Z,85.50
2017-12-02T20:49:06.557Z,85.50
2017-12-02T20:51:34.183Z,85.90
2017-12-02T20:54:01.838Z,86.10
2017-12-02T20:56:29.466Z,85.90
2017-12-02T20:58:57.134Z,86.00
2017-12-02T21:01:24.799Z,85.80
2017-12-02T21:03:52.411Z,85.80
2017-12-02T21:06:20.091Z,85.90
2017-12-02T21:08:47.718Z,86.30
2017-12-02T21:11:15.434Z,86.90
2017-12-02T21:13:43.066Z,86.50
2017-12-02T21:16:11.468Z,86.90
2017-12-02T21:18:39.169Z,86.90
2017-12-02T21:21:07.551Z,87.20
2017-12-02T21:23:35.249Z,87.20
2017-12-02T21:26:02.868Z,86.10
2017-12-02T21:28:30.505Z,86.50
2017-12-02T21:30:58.241Z,86.10
2017-12-02T21:33:25.882Z,86.00
2017-12-02T21:35:53.561Z,86.60
2017-12-02T21:38:21.213Z,86.00
2017-12-02T21:40:48.873Z,85.60
2017-12-02T21:43:16.537Z,86.10
2017-12-02T21:45:44.700Z,86.20
2017-12-02T21:48:12.356Z,86.20
2017-12-02T21:50:40.096Z,86.50
2017-12-02T21:53:07.791Z,85.90
2017-12-02T21:55:36.297Z,86.40
2017-12-02T21:58:03.921Z,86.30
2017-12-02T22:00:31.617Z,85.70
2017-12-02T22:03:00.043Z,85.20
2017-12-02T22:05:27.666Z,85.20
2017-12-02T22:07:55.462Z,85.70
2017-12-02T22:10:23.524Z,85.70
2017-12-02T22:12:51.200Z,85.80
2017-12-02T22:15:18.871Z,86.00
2017-12-02T22:17:46.551Z,85.60
2017-12-02T22:20:14.226Z,84.70
2017-12-02T22:22:41.865Z,84.70
2017-12-02T22:25:10.313Z,84.30
2017-12-02T22:27:37.954Z,84.30
2017-12-02T22:30:05.592Z,84.60
2017-12-02T22:32:33.305Z,85.10
2017-12-02T22:35:00.965Z,84.10
2017-12-02T22:37:28.788Z,84.40
2017-12-02T22:39:57.211Z,84.00
2017-12-02T22:42:24.830Z,84.00
2017-12-02T22:44:52.484Z,85.00
2017-12-02T22:47:20.999Z,85.20
2017-12-02T22:49:49.479Z,85.60
2017-12-02T22:52:17.114Z,85.60
2017-12-02T22:54:45.516Z,86.50
2017-12-02T22:57:13.170Z,86.40
2017-12-02T22:59:40.811Z,87.10
2017-12-02T23:02:08.569Z,87.60
2017-12-02T23:04:36.227Z,87.60
2017-12-02T23:07:03.885Z,87.60
2017-12-02T23:09:31.552Z,87.40
2017-12-02T23:11:59.988Z,87.30
2017-12-02T23:14:27.893Z,87.40
2017-12-02T23:16:55.545Z,87.70
2017-12-02T23:19:23.281Z,87.90
2017-12-02T23:21:51.674Z,88.00
2017-12-02T23:24:19.385Z,87.90
2017-12-02T23:26:47.050Z,87.70
2017-12-02T23:29:14.716Z,88.40
2017-12-02T23:31:42.443Z,88.80
2017-12-02T23:34:10.069Z,89.40
2017-12-02T23:36:37.717Z,89.90
2017-12-02T23:39:06.138Z,90.10
2017-12-02T23:41:33.770Z,90.00
2017-12-02T23:44:01.430Z,90.10
2017-12-02T23:46:29.209Z,90.30
2017-12-02T23:48:56.864Z,90.20
2017-12-02T23:51:24.519Z,90.30
2017-12-02T23:53:52.917Z,89.70
2017-12-02T23:56:20.568Z,89.70
2017-12-02T23:58:48.332Z,90.10
